PILOTS ONLINE: 416    ATC ONLINE: 48

Location

City Torrance
Country  United States
Latitude 33° 48' 12" N
Longitude 118° 20' 23" W
Elevation 103 ft
Type Small Airport

Weather

METAR
2014/07/13 22:47
KTOA 132247Z 29015KT 10SM FEW200 27/18 A2988
TAF
No TAF available

Runways

11L/29R 5001 ft / 150 ft
11R/29L 3000 ft / 75 ft

Outbound flights

Inbound flights


Spotted incorrect airport information? Please login with your VATSIM ID.